sensor_id;sensor_type;location;lat;lon;timestamp;P1;durP1;ratioP1;P2;durP2;ratioP2
31676;SDS011;18385;51.572;6.578;2023-03-01T00:01:04;8.63;;;4.18;;
31676;SDS011;18385;51.572;6.578;2023-03-01T00:03:32;10.73;;;3.88;;
31676;SDS011;18385;51.572;6.578;2023-03-01T00:05:58;7.40;;;4.00;;
31676;SDS011;18385;51.572;6.578;2023-03-01T00:08:24;5.82;;;3.72;;
31676;SDS011;18385;51.572;6.578;2023-03-01T00:10:59;8.13;;;4.10;;
31676;SDS011;18385;51.572;6.578;2023-03-01T00:13:31;10.18;;;3.80;;
31676;SDS011;18385;51.572;6.578;2023-03-01T00:15:57;7.93;;;3.35;;
31676;SDS011;18385;51.572;6.578;2023-03-01T00:18:23;8.95;;;3.80;;
31676;SDS011;18385;51.572;6.578;2023-03-01T00:20:49;7.75;;;3.90;;
31676;SDS011;18385;51.572;6.578;2023-03-01T00:23:19;9.68;;;3.55;;
31676;SDS011;18385;51.572;6.578;2023-03-01T00:25:45;6.72;;;3.80;;
31676;SDS011;18385;51.572;6.578;2023-03-01T00:28:10;6.35;;;3.53;;
31676;SDS011;18385;51.572;6.578;2023-03-01T00:30:36;7.95;;;3.70;;
31676;SDS011;18385;51.572;6.578;2023-03-01T00:33:02;6.30;;;3.33;;
31676;SDS011;18385;51.572;6.578;2023-03-01T00:35:28;7.20;;;3.20;;
31676;SDS011;18385;51.572;6.578;2023-03-01T00:37:53;6.22;;;3.60;;
31676;SDS011;18385;51.572;6.578;2023-03-01T00:40:26;6.30;;;3.40;;
31676;SDS011;18385;51.572;6.578;2023-03-01T00:42:53;8.27;;;3.58;;
31676;SDS011;18385;51.572;6.578;2023-03-01T00:45:19;5.63;;;3.53;;
31676;SDS011;18385;51.572;6.578;2023-03-01T00:47:44;9.15;;;3.65;;
31676;SDS011;18385;51.572;6.578;2023-03-01T00:50:10;8.05;;;3.88;;
31676;SDS011;18385;51.572;6.578;2023-03-01T00:52:36;6.47;;;3.38;;
31676;SDS011;18385;51.572;6.578;2023-03-01T00:55:03;9.50;;;3.50;;
31676;SDS011;18385;51.572;6.578;2023-03-01T00:57:30;6.60;;;3.58;;
31676;SDS011;18385;51.572;6.578;2023-03-01T00:59:55;9.70;;;4.47;;
31676;SDS011;18385;51.572;6.578;2023-03-01T01:02:22;7.15;;;3.95;;
31676;SDS011;18385;51.572;6.578;2023-03-01T01:04:47;8.15;;;4.43;;
31676;SDS011;18385;51.572;6.578;2023-03-01T01:07:13;6.20;;;3.53;;
31676;SDS011;18385;51.572;6.578;2023-03-01T01:09:40;8.10;;;3.67;;
31676;SDS011;18385;51.572;6.578;2023-03-01T01:12:06;6.53;;;3.88;;
31676;SDS011;18385;51.572;6.578;2023-03-01T01:14:33;7.60;;;4.10;;
31676;SDS011;18385;51.572;6.578;2023-03-01T01:16:59;8.80;;;3.75;;
31676;SDS011;18385;51.572;6.578;2023-03-01T01:19:25;7.03;;;3.85;;
31676;SDS011;18385;51.572;6.578;2023-03-01T01:21:51;7.95;;;3.80;;
31676;SDS011;18385;51.572;6.578;2023-03-01T01:24:17;10.35;;;4.03;;
31676;SDS011;18385;51.572;6.578;2023-03-01T01:26:44;8.25;;;3.95;;
31676;SDS011;18385;51.572;6.578;2023-03-01T01:29:11;6.78;;;3.67;;
31676;SDS011;18385;51.572;6.578;2023-03-01T01:31:38;8.38;;;4.03;;
31676;SDS011;18385;51.572;6.578;2023-03-01T01:34:06;7.05;;;3.42;;
31676;SDS011;18385;51.572;6.578;2023-03-01T01:36:33;8.27;;;3.92;;
31676;SDS011;18385;51.572;6.578;2023-03-01T01:39:00;7.15;;;3.70;;
31676;SDS011;18385;51.572;6.578;2023-03-01T01:41:27;7.72;;;3.83;;
31676;SDS011;18385;51.572;6.578;2023-03-01T01:46:51;8.90;;;3.75;;
31676;SDS011;18385;51.572;6.578;2023-03-01T01:49:38;8.77;;;4.13;;
31676;SDS011;18385;51.572;6.578;2023-03-01T01:52:27;6.28;;;3.42;;
31676;SDS011;18385;51.572;6.578;2023-03-01T01:55:00;8.90;;;4.00;;
31676;SDS011;18385;51.572;6.578;2023-03-01T01:57:38;8.05;;;4.47;;
31676;SDS011;18385;51.572;6.578;2023-03-01T02:00:11;7.82;;;3.72;;
31676;SDS011;18385;51.572;6.578;2023-03-01T02:02:39;9.05;;;4.00;;
31676;SDS011;18385;51.572;6.578;2023-03-01T02:05:13;8.10;;;4.32;;
31676;SDS011;18385;51.572;6.578;2023-03-01T02:07:45;7.45;;;4.07;;
31676;SDS011;18385;51.572;6.578;2023-03-01T02:10:12;10.90;;;4.00;;
31676;SDS011;18385;51.572;6.578;2023-03-01T02:12:38;8.23;;;3.90;;
31676;SDS011;18385;51.572;6.578;2023-03-01T02:15:05;6.93;;;3.83;;
31676;SDS011;18385;51.572;6.578;2023-03-01T02:17:31;7.47;;;4.18;;
31676;SDS011;18385;51.572;6.578;2023-03-01T02:20:10;9.57;;;3.88;;
31676;SDS011;18385;51.572;6.578;2023-03-01T02:22:44;6.70;;;3.33;;
31676;SDS011;18385;51.572;6.578;2023-03-01T02:30:43;7.38;;;4.03;;
31676;SDS011;18385;51.572;6.578;2023-03-01T02:33:30;6.95;;;3.53;;
31676;SDS011;18385;51.572;6.578;2023-03-01T02:35:58;9.20;;;3.90;;
31676;SDS011;18385;51.572;6.578;2023-03-01T02:38:26;6.32;;;3.60;;
31676;SDS011;18385;51.572;6.578;2023-03-01T02:40:52;8.25;;;3.83;;
31676;SDS011;18385;51.572;6.578;2023-03-01T02:43:22;9.07;;;4.07;;
31676;SDS011;18385;51.572;6.578;2023-03-01T02:45:51;9.75;;;4.43;;
31676;SDS011;18385;51.572;6.578;2023-03-01T02:48:18;8.55;;;4.28;;
31676;SDS011;18385;51.572;6.578;2023-03-01T02:51:02;9.55;;;3.88;;
31676;SDS011;18385;51.572;6.578;2023-03-01T02:56:23;9.25;;;4.07;;
31676;SDS011;18385;51.572;6.578;2023-03-01T02:58:50;9.60;;;4.55;;
31676;SDS011;18385;51.572;6.578;2023-03-01T03:01:18;8.02;;;3.97;;
31676;SDS011;18385;51.572;6.578;2023-03-01T03:03:45;8.05;;;3.85;;
31676;SDS011;18385;51.572;6.578;2023-03-01T03:06:12;6.25;;;3.38;;
31676;SDS011;18385;51.572;6.578;2023-03-01T03:08:39;10.20;;;3.92;;
31676;SDS011;18385;51.572;6.578;2023-03-01T03:11:04;11.68;;;4.00;;
31676;SDS011;18385;51.572;6.578;2023-03-01T03:13:30;6.57;;;3.72;;
31676;SDS011;18385;51.572;6.578;2023-03-01T03:15:57;6.20;;;3.60;;
31676;SDS011;18385;51.572;6.578;2023-03-01T03:18:24;8.07;;;3.58;;
31676;SDS011;18385;51.572;6.578;2023-03-01T03:20:53;8.05;;;3.75;;
31676;SDS011;18385;51.572;6.578;2023-03-01T03:23:20;9.40;;;3.83;;
31676;SDS011;18385;51.572;6.578;2023-03-01T03:25:47;8.38;;;3.50;;
31676;SDS011;18385;51.572;6.578;2023-03-01T03:28:14;8.07;;;4.15;;
31676;SDS011;18385;51.572;6.578;2023-03-01T03:30:41;9.07;;;3.92;;
31676;SDS011;18385;51.572;6.578;2023-03-01T03:33:07;6.88;;;3.60;;
31676;SDS011;18385;51.572;6.578;2023-03-01T03:35:38;7.95;;;4.32;;
31676;SDS011;18385;51.572;6.578;2023-03-01T03:38:06;6.80;;;3.55;;
31676;SDS011;18385;51.572;6.578;2023-03-01T03:40:40;9.27;;;4.13;;
31676;SDS011;18385;51.572;6.578;2023-03-01T03:43:16;8.80;;;4.30;;
31676;SDS011;18385;51.572;6.578;2023-03-01T03:45:47;8.20;;;4.25;;
31676;SDS011;18385;51.572;6.578;2023-03-01T03:48:14;9.25;;;3.85;;
31676;SDS011;18385;51.572;6.578;2023-03-01T03:50:40;8.40;;;4.03;;
31676;SDS011;18385;51.572;6.578;2023-03-01T03:53:10;9.63;;;4.07;;
31676;SDS011;18385;51.572;6.578;2023-03-01T03:55:37;7.72;;;4.38;;
31676;SDS011;18385;51.572;6.578;2023-03-01T03:58:04;8.30;;;4.30;;
31676;SDS011;18385;51.572;6.578;2023-03-01T04:00:32;7.20;;;4.22;;
31676;SDS011;18385;51.572;6.578;2023-03-01T04:03:03;7.88;;;4.10;;
31676;SDS011;18385;51.572;6.578;2023-03-01T04:05:29;8.63;;;4.32;;
31676;SDS011;18385;51.572;6.578;2023-03-01T04:07:55;8.00;;;3.75;;
31676;SDS011;18385;51.572;6.578;2023-03-01T04:10:31;8.23;;;3.88;;
31676;SDS011;18385;51.572;6.578;2023-03-01T04:13:02;8.95;;;4.20;;
31676;SDS011;18385;51.572;6.578;2023-03-01T04:15:30;8.35;;;4.10;;
31676;SDS011;18385;51.572;6.578;2023-03-01T04:17:57;39.58;;;13.98;;
31676;SDS011;18385;51.572;6.578;2023-03-01T04:20:25;22.80;;;8.50;;
31676;SDS011;18385;51.572;6.578;2023-03-01T04:22:57;12.48;;;5.32;;
31676;SDS011;18385;51.572;6.578;2023-03-01T04:25:24;10.13;;;4.70;;
31676;SDS011;18385;51.572;6.578;2023-03-01T04:27:51;9.77;;;5.40;;
31676;SDS011;18385;51.572;6.578;2023-03-01T04:30:17;9.35;;;4.28;;
31676;SDS011;18385;51.572;6.578;2023-03-01T04:32:43;11.77;;;4.55;;
31676;SDS011;18385;51.572;6.578;2023-03-01T04:35:09;13.43;;;4.45;;
31676;SDS011;18385;51.572;6.578;2023-03-01T04:37:34;6.90;;;4.15;;
31676;SDS011;18385;51.572;6.578;2023-03-01T04:40:00;7.95;;;4.18;;
31676;SDS011;18385;51.572;6.578;2023-03-01T04:42:37;8.35;;;4.32;;
31676;SDS011;18385;51.572;6.578;2023-03-01T04:45:03;9.35;;;4.28;;
31676;SDS011;18385;51.572;6.578;2023-03-01T04:47:38;7.38;;;3.83;;
31676;SDS011;18385;51.572;6.578;2023-03-01T04:50:04;13.75;;;5.90;;
31676;SDS011;18385;51.572;6.578;2023-03-01T04:52:31;10.27;;;5.30;;
31676;SDS011;18385;51.572;6.578;2023-03-01T04:54:56;10.15;;;4.63;;
31676;SDS011;18385;51.572;6.578;2023-03-01T04:57:22;8.93;;;4.15;;
31676;SDS011;18385;51.572;6.578;2023-03-01T04:59:48;10.15;;;4.32;;
31676;SDS011;18385;51.572;6.578;2023-03-01T05:02:13;9.15;;;4.80;;
31676;SDS011;18385;51.572;6.578;2023-03-01T05:04:39;7.63;;;3.70;;
31676;SDS011;18385;51.572;6.578;2023-03-01T05:07:05;8.30;;;4.00;;
31676;SDS011;18385;51.572;6.578;2023-03-01T05:09:30;10.15;;;4.20;;
31676;SDS011;18385;51.572;6.578;2023-03-01T05:11:56;10.40;;;4.40;;
31676;SDS011;18385;51.572;6.578;2023-03-01T05:14:21;9.90;;;4.55;;
31676;SDS011;18385;51.572;6.578;2023-03-01T05:16:48;12.05;;;4.30;;
31676;SDS011;18385;51.572;6.578;2023-03-01T05:19:13;9.40;;;4.32;;
31676;SDS011;18385;51.572;6.578;2023-03-01T05:21:40;12.10;;;4.72;;
31676;SDS011;18385;51.572;6.578;2023-03-01T05:24:25;11.82;;;5.10;;
31676;SDS011;18385;51.572;6.578;2023-03-01T05:26:51;10.00;;;4.43;;
31676;SDS011;18385;51.572;6.578;2023-03-01T05:29:18;13.05;;;4.88;;
31676;SDS011;18385;51.572;6.578;2023-03-01T05:31:51;11.70;;;4.95;;
31676;SDS011;18385;51.572;6.578;2023-03-01T05:34:27;9.07;;;4.85;;
31676;SDS011;18385;51.572;6.578;2023-03-01T05:36:55;10.15;;;4.18;;
31676;SDS011;18385;51.572;6.578;2023-03-01T05:39:22;11.43;;;5.18;;
31676;SDS011;18385;51.572;6.578;2023-03-01T05:41:54;8.60;;;4.43;;
31676;SDS011;18385;51.572;6.578;2023-03-01T05:44:20;10.50;;;4.95;;
31676;SDS011;18385;51.572;6.578;2023-03-01T05:46:46;11.45;;;5.13;;
31676;SDS011;18385;51.572;6.578;2023-03-01T05:49:13;11.23;;;5.13;;
31676;SDS011;18385;51.572;6.578;2023-03-01T05:51:42;11.52;;;5.68;;
31676;SDS011;18385;51.572;6.578;2023-03-01T05:54:12;12.18;;;5.63;;
31676;SDS011;18385;51.572;6.578;2023-03-01T05:56:38;12.98;;;5.20;;
31676;SDS011;18385;51.572;6.578;2023-03-01T05:59:04;14.35;;;5.05;;
31676;SDS011;18385;51.572;6.578;2023-03-01T06:01:30;10.30;;;5.22;;
31676;SDS011;18385;51.572;6.578;2023-03-01T06:06:25;10.10;;;5.85;;
31676;SDS011;18385;51.572;6.578;2023-03-01T06:08:51;11.15;;;5.18;;
31676;SDS011;18385;51.572;6.578;2023-03-01T06:11:18;9.52;;;5.00;;
31676;SDS011;18385;51.572;6.578;2023-03-01T06:13:44;11.43;;;5.07;;
31676;SDS011;18385;51.572;6.578;2023-03-01T06:16:10;9.60;;;4.95;;
31676;SDS011;18385;51.572;6.578;2023-03-01T06:18:36;10.10;;;4.30;;
31676;SDS011;18385;51.572;6.578;2023-03-01T06:21:02;9.27;;;5.30;;
31676;SDS011;18385;51.572;6.578;2023-03-01T06:23:28;11.82;;;6.38;;
31676;SDS011;18385;51.572;6.578;2023-03-01T06:25:54;27.02;;;10.50;;
31676;SDS011;18385;51.572;6.578;2023-03-01T06:28:19;22.67;;;9.77;;
31676;SDS011;18385;51.572;6.578;2023-03-01T06:30:45;20.25;;;9.40;;
31676;SDS011;18385;51.572;6.578;2023-03-01T06:33:11;18.77;;;8.77;;
31676;SDS011;18385;51.572;6.578;2023-03-01T06:35:37;10.73;;;5.68;;
31676;SDS011;18385;51.572;6.578;2023-03-01T06:38:05;13.20;;;6.18;;
31676;SDS011;18385;51.572;6.578;2023-03-01T06:40:31;13.77;;;6.03;;
31676;SDS011;18385;51.572;6.578;2023-03-01T06:42:57;11.23;;;5.63;;
31676;SDS011;18385;51.572;6.578;2023-03-01T06:45:24;16.13;;;7.88;;
31676;SDS011;18385;51.572;6.578;2023-03-01T06:47:49;20.75;;;10.45;;
31676;SDS011;18385;51.572;6.578;2023-03-01T06:50:16;16.88;;;8.88;;
31676;SDS011;18385;51.572;6.578;2023-03-01T06:52:42;15.90;;;8.65;;
31676;SDS011;18385;51.572;6.578;2023-03-01T06:55:09;17.10;;;6.18;;
31676;SDS011;18385;51.572;6.578;2023-03-01T06:57:36;13.68;;;5.78;;
31676;SDS011;18385;51.572;6.578;2023-03-01T07:00:03;10.35;;;5.38;;
31676;SDS011;18385;51.572;6.578;2023-03-01T07:02:29;8.85;;;4.95;;
31676;SDS011;18385;51.572;6.578;2023-03-01T07:04:55;9.60;;;4.47;;
31676;SDS011;18385;51.572;6.578;2023-03-01T07:07:20;12.82;;;5.90;;
31676;SDS011;18385;51.572;6.578;2023-03-01T07:09:46;11.30;;;5.60;;
31676;SDS011;18385;51.572;6.578;2023-03-01T07:12:14;13.98;;;5.45;;
31676;SDS011;18385;51.572;6.578;2023-03-01T07:14:39;10.93;;;5.65;;
31676;SDS011;18385;51.572;6.578;2023-03-01T07:17:05;17.23;;;6.63;;
31676;SDS011;18385;51.572;6.578;2023-03-01T07:19:31;14.63;;;7.32;;
31676;SDS011;18385;51.572;6.578;2023-03-01T07:21:57;11.95;;;5.40;;
31676;SDS011;18385;51.572;6.578;2023-03-01T07:24:22;12.80;;;6.43;;
31676;SDS011;18385;51.572;6.578;2023-03-01T07:26:49;10.35;;;5.43;;
31676;SDS011;18385;51.572;6.578;2023-03-01T07:29:15;13.90;;;5.35;;
31676;SDS011;18385;51.572;6.578;2023-03-01T07:31:41;11.57;;;5.47;;
31676;SDS011;18385;51.572;6.578;2023-03-01T07:34:07;11.50;;;5.53;;
31676;SDS011;18385;51.572;6.578;2023-03-01T07:36:32;10.95;;;4.90;;
31676;SDS011;18385;51.572;6.578;2023-03-01T07:38:58;8.57;;;4.57;;
31676;SDS011;18385;51.572;6.578;2023-03-01T07:41:24;10.60;;;5.85;;
31676;SDS011;18385;51.572;6.578;2023-03-01T07:43:49;13.25;;;5.75;;
31676;SDS011;18385;51.572;6.578;2023-03-01T07:46:15;12.23;;;5.57;;
31676;SDS011;18385;51.572;6.578;2023-03-01T07:48:42;9.65;;;4.85;;
31676;SDS011;18385;51.572;6.578;2023-03-01T07:51:09;9.05;;;4.78;;
31676;SDS011;18385;51.572;6.578;2023-03-01T07:53:35;11.68;;;4.18;;
31676;SDS011;18385;51.572;6.578;2023-03-01T07:56:01;8.52;;;4.55;;
31676;SDS011;18385;51.572;6.578;2023-03-01T07:58:27;7.30;;;4.13;;
31676;SDS011;18385;51.572;6.578;2023-03-01T08:00:53;11.63;;;5.25;;
31676;SDS011;18385;51.572;6.578;2023-03-01T08:03:18;10.10;;;4.97;;
31676;SDS011;18385;51.572;6.578;2023-03-01T08:05:44;8.40;;;4.10;;
31676;SDS011;18385;51.572;6.578;2023-03-01T08:08:09;11.20;;;4.32;;
31676;SDS011;18385;51.572;6.578;2023-03-01T08:10:35;13.38;;;4.47;;
31676;SDS011;18385;51.572;6.578;2023-03-01T08:13:01;8.95;;;4.45;;
31676;SDS011;18385;51.572;6.578;2023-03-01T08:15:27;10.13;;;4.65;;
31676;SDS011;18385;51.572;6.578;2023-03-01T08:17:53;11.05;;;4.72;;
31676;SDS011;18385;51.572;6.578;2023-03-01T08:20:18;9.25;;;4.03;;
31676;SDS011;18385;51.572;6.578;2023-03-01T08:22:44;8.85;;;4.25;;
31676;SDS011;18385;51.572;6.578;2023-03-01T08:25:10;9.07;;;4.25;;
31676;SDS011;18385;51.572;6.578;2023-03-01T08:27:35;12.65;;;4.68;;
31676;SDS011;18385;51.572;6.578;2023-03-01T08:30:01;10.35;;;5.05;;
31676;SDS011;18385;51.572;6.578;2023-03-01T08:32:27;8.65;;;4.63;;
31676;SDS011;18385;51.572;6.578;2023-03-01T08:34:52;9.85;;;4.40;;
31676;SDS011;18385;51.572;6.578;2023-03-01T08:37:18;11.55;;;4.88;;
31676;SDS011;18385;51.572;6.578;2023-03-01T08:39:44;10.82;;;4.50;;
31676;SDS011;18385;51.572;6.578;2023-03-01T08:42:09;10.45;;;4.78;;
31676;SDS011;18385;51.572;6.578;2023-03-01T08:44:35;12.75;;;4.35;;
31676;SDS011;18385;51.572;6.578;2023-03-01T08:47:01;9.18;;;4.53;;
31676;SDS011;18385;51.572;6.578;2023-03-01T08:49:27;9.52;;;4.22;;
31676;SDS011;18385;51.572;6.578;2023-03-01T08:51:53;14.38;;;5.97;;
31676;SDS011;18385;51.572;6.578;2023-03-01T08:54:20;10.15;;;4.47;;
31676;SDS011;18385;51.572;6.578;2023-03-01T08:56:47;10.30;;;5.22;;
31676;SDS011;18385;51.572;6.578;2023-03-01T08:59:16;13.25;;;5.45;;
31676;SDS011;18385;51.572;6.578;2023-03-01T09:01:42;8.98;;;4.40;;
31676;SDS011;18385;51.572;6.578;2023-03-01T09:04:09;12.57;;;5.40;;
31676;SDS011;18385;51.572;6.578;2023-03-01T09:06:35;10.73;;;5.20;;
31676;SDS011;18385;51.572;6.578;2023-03-01T09:09:02;11.55;;;5.50;;
31676;SDS011;18385;51.572;6.578;2023-03-01T09:11:29;7.18;;;4.03;;
31676;SDS011;18385;51.572;6.578;2023-03-01T09:13:54;10.10;;;4.43;;
31676;SDS011;18385;51.572;6.578;2023-03-01T09:16:21;9.27;;;4.22;;
31676;SDS011;18385;51.572;6.578;2023-03-01T09:18:49;8.77;;;4.70;;
31676;SDS011;18385;51.572;6.578;2023-03-01T09:21:16;10.80;;;4.53;;
31676;SDS011;18385;51.572;6.578;2023-03-01T09:23:44;9.82;;;4.60;;
31676;SDS011;18385;51.572;6.578;2023-03-01T09:26:12;14.40;;;4.55;;
31676;SDS011;18385;51.572;6.578;2023-03-01T09:28:41;7.45;;;4.03;;
31676;SDS011;18385;51.572;6.578;2023-03-01T09:31:09;8.38;;;4.00;;
31676;SDS011;18385;51.572;6.578;2023-03-01T09:33:38;10.38;;;4.55;;
31676;SDS011;18385;51.572;6.578;2023-03-01T09:36:05;8.88;;;4.90;;
31676;SDS011;18385;51.572;6.578;2023-03-01T09:38:32;11.95;;;4.47;;
31676;SDS011;18385;51.572;6.578;2023-03-01T09:40:59;10.77;;;4.10;;
31676;SDS011;18385;51.572;6.578;2023-03-01T09:46:09;10.32;;;4.53;;
31676;SDS011;18385;51.572;6.578;2023-03-01T09:48:59;13.73;;;4.53;;
31676;SDS011;18385;51.572;6.578;2023-03-01T09:51:26;9.60;;;4.60;;
31676;SDS011;18385;51.572;6.578;2023-03-01T09:53:54;10.18;;;4.00;;
31676;SDS011;18385;51.572;6.578;2023-03-01T09:56:41;10.95;;;4.45;;
31676;SDS011;18385;51.572;6.578;2023-03-01T09:59:30;10.63;;;4.13;;
31676;SDS011;18385;51.572;6.578;2023-03-01T10:02:23;10.43;;;4.20;;
31676;SDS011;18385;51.572;6.578;2023-03-01T10:04:52;6.47;;;3.75;;
31676;SDS011;18385;51.572;6.578;2023-03-01T10:10:04;7.75;;;4.13;;
31676;SDS011;18385;51.572;6.578;2023-03-01T10:12:35;8.45;;;3.50;;
31676;SDS011;18385;51.572;6.578;2023-03-01T10:15:11;8.45;;;4.25;;
31676;SDS011;18385;51.572;6.578;2023-03-01T10:17:51;8.60;;;3.67;;
31676;SDS011;18385;51.572;6.578;2023-03-01T10:20:24;9.82;;;3.63;;
31676;SDS011;18385;51.572;6.578;2023-03-01T10:22:51;8.40;;;3.85;;
31676;SDS011;18385;51.572;6.578;2023-03-01T10:25:23;8.98;;;4.43;;
31676;SDS011;18385;51.572;6.578;2023-03-01T10:28:16;5.40;;;3.50;;
31676;SDS011;18385;51.572;6.578;2023-03-01T10:30:51;8.43;;;3.58;;
31676;SDS011;18385;51.572;6.578;2023-03-01T10:33:22;10.07;;;3.83;;
31676;SDS011;18385;51.572;6.578;2023-03-01T10:35:49;6.07;;;3.50;;
31676;SDS011;18385;51.572;6.578;2023-03-01T10:38:16;7.65;;;3.60;;
31676;SDS011;18385;51.572;6.578;2023-03-01T10:40:53;6.38;;;3.00;;
31676;SDS011;18385;51.572;6.578;2023-03-01T10:43:22;7.63;;;3.78;;
31676;SDS011;18385;51.572;6.578;2023-03-01T10:45:55;7.00;;;3.60;;
31676;SDS011;18385;51.572;6.578;2023-03-01T10:48:25;6.88;;;2.75;;
31676;SDS011;18385;51.572;6.578;2023-03-01T10:53:28;6.70;;;3.53;;
31676;SDS011;18385;51.572;6.578;2023-03-01T10:56:21;7.03;;;3.47;;
31676;SDS011;18385;51.572;6.578;2023-03-01T10:58:57;6.20;;;3.40;;
31676;SDS011;18385;51.572;6.578;2023-03-01T11:06:32;6.63;;;3.22;;
31676;SDS011;18385;51.572;6.578;2023-03-01T11:09:15;5.88;;;2.92;;
31676;SDS011;18385;51.572;6.578;2023-03-01T11:11:43;7.90;;;3.40;;
31676;SDS011;18385;51.572;6.578;2023-03-01T11:16:47;4.85;;;2.75;;
31676;SDS011;18385;51.572;6.578;2023-03-01T11:19:23;6.22;;;3.00;;
31676;SDS011;18385;51.572;6.578;2023-03-01T11:22:00;6.78;;;3.08;;
31676;SDS011;18385;51.572;6.578;2023-03-01T11:24:30;7.55;;;3.00;;
31676;SDS011;18385;51.572;6.578;2023-03-01T11:27:11;7.85;;;3.25;;
31676;SDS011;18385;51.572;6.578;2023-03-01T11:29:57;7.85;;;2.80;;
31676;SDS011;18385;51.572;6.578;2023-03-01T11:32:27;8.48;;;4.15;;
31676;SDS011;18385;51.572;6.578;2023-03-01T11:34:57;8.23;;;3.08;;
31676;SDS011;18385;51.572;6.578;2023-03-01T11:40:32;8.27;;;3.28;;
31676;SDS011;18385;51.572;6.578;2023-03-01T11:43:52;8.25;;;3.90;;
31676;SDS011;18385;51.572;6.578;2023-03-01T11:54:37;8.18;;;2.92;;
31676;SDS011;18385;51.572;6.578;2023-03-01T12:05:24;6.82;;;3.25;;
31676;SDS011;18385;51.572;6.578;2023-03-01T12:08:14;6.43;;;3.00;;
31676;SDS011;18385;51.572;6.578;2023-03-01T12:13:46;5.65;;;3.05;;
31676;SDS011;18385;51.572;6.578;2023-03-01T12:36:17;6.63;;;2.90;;
31676;SDS011;18385;51.572;6.578;2023-03-01T12:38:25;5.63;;;2.63;;
31676;SDS011;18385;51.572;6.578;2023-03-01T12:43:53;6.50;;;3.10;;
31676;SDS011;18385;51.572;6.578;2023-03-01T12:46:45;6.18;;;3.25;;
31676;SDS011;18385;51.572;6.578;2023-03-01T12:49:24;6.47;;;2.85;;
31676;SDS011;18385;51.572;6.578;2023-03-01T12:52:10;9.02;;;3.17;;
31676;SDS011;18385;51.572;6.578;2023-03-01T12:54:50;10.93;;;3.22;;
31676;SDS011;18385;51.572;6.578;2023-03-01T12:57:36;5.90;;;3.38;;
31676;SDS011;18385;51.572;6.578;2023-03-01T13:03:09;5.43;;;2.92;;
31676;SDS011;18385;51.572;6.578;2023-03-01T13:11:40;8.35;;;3.50;;
31676;SDS011;18385;51.572;6.578;2023-03-01T13:16:48;7.53;;;3.10;;
31676;SDS011;18385;51.572;6.578;2023-03-01T13:19:20;7.43;;;2.95;;
31676;SDS011;18385;51.572;6.578;2023-03-01T13:21:48;7.25;;;2.90;;
31676;SDS011;18385;51.572;6.578;2023-03-01T13:24:25;7.43;;;3.15;;
31676;SDS011;18385;51.572;6.578;2023-03-01T13:29:46;6.82;;;3.13;;
31676;SDS011;18385;51.572;6.578;2023-03-01T13:32:24;12.30;;;5.20;;
31676;SDS011;18385;51.572;6.578;2023-03-01T13:38:36;8.57;;;3.95;;
31676;SDS011;18385;51.572;6.578;2023-03-01T13:41:03;7.18;;;3.30;;
31676;SDS011;18385;51.572;6.578;2023-03-01T13:46:16;7.22;;;3.20;;
31676;SDS011;18385;51.572;6.578;2023-03-01T13:48:48;7.72;;;3.80;;
31676;SDS011;18385;51.572;6.578;2023-03-01T13:51:21;7.60;;;3.35;;
31676;SDS011;18385;51.572;6.578;2023-03-01T13:53:50;8.40;;;3.53;;
31676;SDS011;18385;51.572;6.578;2023-03-01T13:59:32;7.07;;;3.47;;
31676;SDS011;18385;51.572;6.578;2023-03-01T14:01:40;10.18;;;4.35;;
31676;SDS011;18385;51.572;6.578;2023-03-01T14:04:18;6.40;;;3.47;;
31676;SDS011;18385;51.572;6.578;2023-03-01T14:09:45;6.50;;;3.40;;
31676;SDS011;18385;51.572;6.578;2023-03-01T14:20:27;7.85;;;3.53;;
31676;SDS011;18385;51.572;6.578;2023-03-01T14:22:55;9.38;;;3.25;;
31676;SDS011;18385;51.572;6.578;2023-03-01T14:27:56;7.93;;;3.67;;
31676;SDS011;18385;51.572;6.578;2023-03-01T14:30:42;11.25;;;3.63;;
31676;SDS011;18385;51.572;6.578;2023-03-01T14:35:57;7.30;;;3.67;;
31676;SDS011;18385;51.572;6.578;2023-03-01T14:41:14;7.63;;;3.92;;
31676;SDS011;18385;51.572;6.578;2023-03-01T14:43:43;9.07;;;3.90;;
31676;SDS011;18385;51.572;6.578;2023-03-01T14:49:19;7.28;;;3.40;;
31676;SDS011;18385;51.572;6.578;2023-03-01T14:54:35;7.72;;;3.90;;
31676;SDS011;18385;51.572;6.578;2023-03-01T14:57:12;6.63;;;3.85;;
31676;SDS011;18385;51.572;6.578;2023-03-01T14:59:50;7.72;;;3.75;;
31676;SDS011;18385;51.572;6.578;2023-03-01T15:02:19;8.90;;;3.53;;
31676;SDS011;18385;51.572;6.578;2023-03-01T15:05:03;8.55;;;4.45;;
31676;SDS011;18385;51.572;6.578;2023-03-01T15:07:31;7.88;;;3.50;;
31676;SDS011;18385;51.572;6.578;2023-03-01T15:10:00;7.75;;;3.60;;
31676;SDS011;18385;51.572;6.578;2023-03-01T15:14:54;7.32;;;3.78;;
31676;SDS011;18385;51.572;6.578;2023-03-01T15:19:57;9.60;;;3.90;;
31676;SDS011;18385;51.572;6.578;2023-03-01T15:22:24;8.25;;;4.15;;
31676;SDS011;18385;51.572;6.578;2023-03-01T15:24:52;9.57;;;3.90;;
31676;SDS011;18385;51.572;6.578;2023-03-01T15:27:20;9.80;;;4.30;;
31676;SDS011;18385;51.572;6.578;2023-03-01T15:29:48;10.02;;;3.83;;
31676;SDS011;18385;51.572;6.578;2023-03-01T15:32:30;8.07;;;3.70;;
31676;SDS011;18385;51.572;6.578;2023-03-01T15:41:02;7.28;;;3.53;;
31676;SDS011;18385;51.572;6.578;2023-03-01T15:44:13;7.13;;;3.15;;
31676;SDS011;18385;51.572;6.578;2023-03-01T15:46:32;16.98;;;3.85;;
31676;SDS011;18385;51.572;6.578;2023-03-01T15:49:01;8.07;;;3.45;;
31676;SDS011;18385;51.572;6.578;2023-03-01T15:56:26;8.52;;;4.13;;
31676;SDS011;18385;51.572;6.578;2023-03-01T15:58:51;9.07;;;3.65;;
31676;SDS011;18385;51.572;6.578;2023-03-01T16:01:17;8.82;;;3.63;;
31676;SDS011;18385;51.572;6.578;2023-03-01T16:03:43;6.95;;;3.28;;
31676;SDS011;18385;51.572;6.578;2023-03-01T16:06:10;7.60;;;3.75;;
31676;SDS011;18385;51.572;6.578;2023-03-01T16:08:36;8.18;;;3.90;;
31676;SDS011;18385;51.572;6.578;2023-03-01T16:11:03;7.28;;;3.40;;
31676;SDS011;18385;51.572;6.578;2023-03-01T16:13:31;6.68;;;3.42;;
31676;SDS011;18385;51.572;6.578;2023-03-01T16:15:57;6.95;;;3.42;;
31676;SDS011;18385;51.572;6.578;2023-03-01T16:18:23;7.18;;;3.53;;
31676;SDS011;18385;51.572;6.578;2023-03-01T16:20:49;8.35;;;3.88;;
31676;SDS011;18385;51.572;6.578;2023-03-01T16:23:14;5.28;;;2.78;;
31676;SDS011;18385;51.572;6.578;2023-03-01T16:25:40;6.55;;;3.50;;
31676;SDS011;18385;51.572;6.578;2023-03-01T16:28:07;7.72;;;3.42;;
31676;SDS011;18385;51.572;6.578;2023-03-01T16:33:04;9.30;;;3.45;;
31676;SDS011;18385;51.572;6.578;2023-03-01T16:35:32;7.45;;;3.53;;
31676;SDS011;18385;51.572;6.578;2023-03-01T16:37:59;7.03;;;3.70;;
31676;SDS011;18385;51.572;6.578;2023-03-01T16:40:26;7.75;;;3.58;;
31676;SDS011;18385;51.572;6.578;2023-03-01T16:42:53;8.45;;;4.47;;
31676;SDS011;18385;51.572;6.578;2023-03-01T16:45:25;7.97;;;3.55;;
31676;SDS011;18385;51.572;6.578;2023-03-01T16:47:51;7.32;;;3.42;;
31676;SDS011;18385;51.572;6.578;2023-03-01T16:50:18;6.93;;;3.83;;
31676;SDS011;18385;51.572;6.578;2023-03-01T16:52:43;10.45;;;4.28;;
31676;SDS011;18385;51.572;6.578;2023-03-01T16:55:09;8.30;;;3.85;;
31676;SDS011;18385;51.572;6.578;2023-03-01T16:57:38;7.43;;;4.05;;
31676;SDS011;18385;51.572;6.578;2023-03-01T17:00:07;8.33;;;4.00;;
31676;SDS011;18385;51.572;6.578;2023-03-01T17:02:35;7.35;;;3.63;;
31676;SDS011;18385;51.572;6.578;2023-03-01T17:05:01;8.35;;;3.90;;
31676;SDS011;18385;51.572;6.578;2023-03-01T17:07:28;8.90;;;4.03;;
31676;SDS011;18385;51.572;6.578;2023-03-01T17:09:58;7.70;;;3.78;;
31676;SDS011;18385;51.572;6.578;2023-03-01T17:12:25;12.20;;;3.78;;
31676;SDS011;18385;51.572;6.578;2023-03-01T17:14:51;9.40;;;3.55;;
31676;SDS011;18385;51.572;6.578;2023-03-01T17:17:16;9.65;;;4.22;;